Time;durP1;ratioP1;P1;durP2;ratioP2;P2;SDS_P1;SDS_P2;PMS_P1;PMS_P2;Temp;Humidity;BMP_temperature;BMP_pressure;BME280_temperature;BME280_humidity;BME280_pressure;Samples;Min_cycle;Max_cycle;Signal;HPM_P1;HPM_P2
2022/04/18 00:01:12;;;;;;;4.10;1.88;;;20.50;99.90;;;;;;5061536;28;20656;-71
2022/04/18 00:03:44;;;;;;;3.80;1.77;;;20.60;99.90;;;;;;5053547;28;20240;-71
2022/04/18 00:06:15;;;;;;;2.67;1.40;;;20.70;99.90;;;;;;5060784;28;20197;-71
2022/04/18 00:08:45;;;;;;;2.97;1.70;;;20.70;99.90;;;;;;5060585;28;20225;-71
2022/04/18 00:11:16;;;;;;;3.88;1.70;;;20.80;99.90;;;;;;5058438;28;20193;-71
2022/04/18 00:13:47;;;;;;;3.38;1.58;;;20.90;99.90;;;;;;5076694;28;20181;-72
2022/04/18 00:16:17;;;;;;;3.90;1.50;;;21.00;99.90;;;;;;5074018;28;20185;-72
2022/04/18 00:18:50;;;;;;;2.08;1.40;;;21.10;99.90;;;;;;5065341;28;20525;-72
2022/04/18 00:21:20;;;;;;;1.67;1.20;;;21.30;99.90;;;;;;5067959;28;21540;-73
2022/04/18 00:23:51;;;;;;;1.48;1.30;;;21.40;99.90;;;;;;5073685;28;20188;-71
2022/04/18 00:26:22;;;;;;;2.03;1.20;;;21.50;99.90;;;;;;5074300;28;20185;-72
2022/04/18 00:28:52;;;;;;;2.63;1.30;;;21.60;99.90;;;;;;5067984;28;20238;-71
2022/04/18 00:31:23;;;;;;;2.67;1.08;;;21.70;99.90;;;;;;5070356;28;20583;-72
2022/04/18 00:33:55;;;;;;;1.63;1.02;;;21.90;99.90;;;;;;5072412;28;20197;-71
2022/04/18 00:36:26;;;;;;;1.85;1.50;;;22.00;99.90;;;;;;5074461;28;20185;-71
2022/04/18 00:38:57;;;;;;;1.23;1.13;;;22.00;99.90;;;;;;5070879;28;20220;-71
2022/04/18 00:41:27;;;;;;;2.08;1.10;;;22.20;99.90;;;;;;5069326;28;20197;-72
2022/04/18 00:43:58;;;;;;;1.88;1.10;;;22.30;99.90;;;;;;5071564;28;20246;-72
2022/04/18 00:46:29;;;;;;;1.67;1.10;;;22.40;99.90;;;;;;5071168;28;20201;-72
2022/04/18 00:49:01;;;;;;;2.20;1.20;;;22.50;99.90;;;;;;5061776;28;20217;-71
2022/04/18 00:51:32;;;;;;;1.50;1.38;;;22.60;99.90;;;;;;5071843;28;20204;-72
2022/04/18 00:54:02;;;;;;;2.47;1.02;;;22.80;99.90;;;;;;5067632;28;20193;-71
2022/04/18 00:56:34;;;;;;;1.40;1.02;;;22.80;99.90;;;;;;5067539;28;20660;-75
2022/04/18 00:59:05;;;;;;;1.60;1.20;;;22.90;99.90;;;;;;5062104;28;20208;-75
2022/04/18 01:01:36;;;;;;;28.58;19.00;;;23.00;99.90;;;;;;5069018;28;20186;-74
2022/04/18 01:04:08;;;;;;;4.57;3.10;;;23.10;99.90;;;;;;5062224;28;20245;-76
2022/04/18 01:06:39;;;;;;;3.58;1.30;;;23.30;99.90;;;;;;5066172;28;20242;-74
2022/04/18 01:09:10;;;;;;;14.60;9.77;;;23.40;99.90;;;;;;5062862;28;20232;-74
2022/04/18 01:11:40;;;;;;;5.70;4.35;;;23.50;99.90;;;;;;5068706;28;20201;-72
2022/04/18 01:14:11;;;;;;;6.75;4.57;;;23.60;99.90;;;;;;5071937;28;20234;-78
2022/04/18 01:16:42;;;;;;;2.85;1.50;;;23.60;99.90;;;;;;5071186;28;20196;-74
2022/04/18 01:19:14;;;;;;;3.15;2.28;;;23.60;99.90;;;;;;5074262;28;20574;-71
2022/04/18 01:21:47;;;;;;;1.73;1.00;;;23.70;99.90;;;;;;5068650;28;20200;-72
2022/04/18 01:29:51;;;;;;;2.92;1.15;;;23.90;99.90;;;;;;5074419;28;20759;-73
2022/04/18 01:32:22;;;;;;;1.20;1.00;;;24.00;99.90;;;;;;5069202;28;20202;-75
2022/04/18 01:34:52;;;;;;;1.63;1.23;;;24.10;99.90;;;;;;5072749;28;20197;-71
2022/04/18 01:37:25;;;;;;;1.35;0.98;;;24.20;99.90;;;;;;5065494;28;20216;-72
2022/04/18 01:39:55;;;;;;;1.80;1.05;;;24.30;99.90;;;;;;5064303;28;20227;-75
2022/04/18 01:42:26;;;;;;;1.55;0.93;;;24.40;99.90;;;;;;5072218;28;20192;-80
2022/04/18 01:44:57;;;;;;;1.60;1.10;;;24.40;99.90;;;;;;5072431;28;20228;-79
2022/04/18 01:47:27;;;;;;;1.67;0.90;;;24.40;99.90;;;;;;5066992;28;20216;-80
2022/04/18 01:49:58;;;;;;;0.90;0.90;;;24.50;99.90;;;;;;5070082;28;20197;-71
2022/04/18 01:52:30;;;;;;;1.77;0.90;;;24.60;99.90;;;;;;5059778;28;20271;-72
2022/04/18 01:55:01;;;;;;;1.35;1.08;;;24.70;99.90;;;;;;5066900;28;20262;-72
2022/04/18 01:57:31;;;;;;;41.13;29.25;;;24.90;99.90;;;;;;5063869;28;20201;-71
2022/04/18 02:00:02;;;;;;;8.98;6.53;;;24.90;99.90;;;;;;5065305;28;20193;-72
2022/04/18 02:02:33;;;;;;;5.03;3.55;;;25.00;99.90;;;;;;5064302;28;20199;-73
2022/04/18 02:05:04;;;;;;;2.78;1.58;;;25.00;99.90;;;;;;5068409;28;20638;-73
2022/04/18 02:07:37;;;;;;;2.85;2.40;;;25.00;99.90;;;;;;5069280;28;20244;-72
2022/04/18 02:10:08;;;;;;;2.95;2.40;;;25.00;99.90;;;;;;5064186;28;20697;-71
2022/04/18 02:12:39;;;;;;;2.45;1.30;;;25.00;99.90;;;;;;5069695;28;20563;-71
2022/04/18 02:15:10;;;;;;;1.48;0.70;;;25.00;99.90;;;;;;5071310;28;20185;-71
2022/04/18 02:17:41;;;;;;;0.98;0.70;;;25.10;99.90;;;;;;5073581;28;20645;-72
2022/04/18 02:20:12;;;;;;;0.82;0.50;;;25.10;99.90;;;;;;5070692;28;20563;-72
2022/04/18 02:22:46;;;;;;;0.77;0.68;;;25.10;99.90;;;;;;5063643;28;20200;-72
2022/04/18 02:25:17;;;;;;;2.47;0.60;;;25.10;99.90;;;;;;5058641;28;20726;-72
2022/04/18 02:27:48;;;;;;;1.40;0.68;;;25.20;99.90;;;;;;5069746;28;20308;-72
2022/04/18 02:30:18;;;;;;;0.70;0.70;;;25.20;99.90;;;;;;5070632;28;20189;-72
2022/04/18 02:32:52;;;;;;;0.65;0.60;;;25.20;99.90;;;;;;5067263;28;20250;-72
2022/04/18 02:35:23;;;;;;;0.85;0.70;;;25.20;99.90;;;;;;5068692;28;20222;-72
2022/04/18 02:37:56;;;;;;;1.55;0.68;;;25.20;99.90;;;;;;5067494;28;20200;-71
2022/04/18 02:40:27;;;;;;;1.33;0.65;;;25.30;99.90;;;;;;5069223;28;20195;-72
2022/04/18 02:42:57;;;;;;;0.82;0.52;;;25.30;99.90;;;;;;5066370;28;20559;-75
2022/04/18 02:45:31;;;;;;;0.88;0.60;;;25.40;99.90;;;;;;5069666;28;20222;-71
2022/04/18 02:48:02;;;;;;;0.95;0.60;;;25.40;99.90;;;;;;5067723;28;20213;-71
2022/04/18 02:50:32;;;;;;;2.45;0.68;;;25.50;99.90;;;;;;5069937;28;20201;-71
2022/04/18 02:53:07;;;;;;;0.93;0.70;;;25.50;99.90;;;;;;5069715;28;20201;-72
2022/04/18 02:55:38;;;;;;;0.77;0.63;;;25.50;99.90;;;;;;5062663;28;20196;-72
2022/04/18 02:58:08;;;;;;;2.55;0.60;;;25.40;99.90;;;;;;5067044;28;20660;-70
2022/04/18 03:00:39;;;;;;;1.38;0.60;;;25.40;99.90;;;;;;5067350;28;20213;-71
2022/04/18 03:03:10;;;;;;;0.75;0.50;;;25.30;99.90;;;;;;5069825;28;20277;-72
2022/04/18 03:05:40;;;;;;;1.20;0.60;;;25.40;99.90;;;;;;5068423;28;20652;-73
2022/04/18 03:08:13;;;;;;;0.93;0.65;;;25.40;99.90;;;;;;5062913;28;20221;-71
2022/04/18 03:13:43;;;;;;;1.20;0.57;;;25.50;99.90;;;;;;5043542;28;20216;-80
2022/04/18 03:16:18;;;;;;;1.85;0.60;;;25.50;99.90;;;;;;5064649;28;20196;-74
2022/04/18 03:18:49;;;;;;;1.75;0.60;;;25.40;99.90;;;;;;5068691;28;20188;-73
2022/04/18 03:21:22;;;;;;;1.15;0.60;;;25.50;99.90;;;;;;5069843;28;20189;-74
2022/04/18 03:23:55;;;;;;;0.52;0.45;;;25.40;99.90;;;;;;5064930;28;20291;-72
2022/04/18 03:26:25;;;;;;;1.17;0.60;;;25.40;99.90;;;;;;5071496;28;20189;-73
2022/04/18 03:28:56;;;;;;;1.48;0.50;;;25.40;99.90;;;;;;5066648;28;20212;-72
2022/04/18 03:31:27;;;;;;;1.25;0.60;;;25.40;99.90;;;;;;5071188;28;20193;-74
2022/04/18 03:33:57;;;;;;;1.33;0.68;;;25.40;99.90;;;;;;5068406;28;20544;-73
2022/04/18 03:42:04;;;;;;;0.70;0.60;;;25.40;99.90;;;;;;5071007;28;20203;-71
2022/04/18 03:44:35;;;;;;;1.33;0.65;;;25.40;99.90;;;;;;5069540;28;20225;-73
2022/04/18 03:47:05;;;;;;;1.40;0.50;;;25.40;99.90;;;;;;5067939;28;20208;-74
2022/04/18 03:49:36;;;;;;;1.65;0.60;;;25.30;99.90;;;;;;5069083;28;20213;-75
2022/04/18 03:52:07;;;;;;;0.80;0.50;;;25.30;99.90;;;;;;5072112;28;20188;-74
2022/04/18 03:54:43;;;;;;;2.22;0.70;;;25.30;99.90;;;;;;5070222;28;20200;-73
2022/04/18 03:57:13;;;;;;;0.68;0.60;;;25.20;99.90;;;;;;5073454;28;20197;-74
2022/04/18 03:59:44;;;;;;;2.15;0.60;;;25.30;99.90;;;;;;5072233;28;20258;-72
2022/04/18 04:02:15;;;;;;;2.13;0.77;;;25.40;99.90;;;;;;5070113;28;20588;-74
2022/04/18 04:04:46;;;;;;;0.98;0.60;;;25.40;99.90;;;;;;5069377;28;20233;-74
2022/04/18 04:07:16;;;;;;;1.25;0.60;;;25.50;99.90;;;;;;5073448;28;20189;-73
2022/04/18 04:09:49;;;;;;;2.15;0.70;;;25.50;99.90;;;;;;5073660;28;20205;-72
2022/04/18 04:12:26;;;;;;;2.33;0.70;;;25.40;99.90;;;;;;5072567;28;20251;-71
2022/04/18 04:14:57;;;;;;;1.85;0.63;;;25.40;99.90;;;;;;5072051;28;20201;-73
2022/04/18 04:17:27;;;;;;;0.85;0.60;;;25.60;99.90;;;;;;5071691;28;20193;-72
2022/04/18 04:19:58;;;;;;;2.45;0.73;;;25.60;99.90;;;;;;5068659;28;20208;-73
2022/04/18 04:22:29;;;;;;;1.52;0.80;;;25.60;99.90;;;;;;5062802;28;20267;-72
2022/04/18 04:25:01;;;;;;;1.02;0.50;;;25.70;99.90;;;;;;5066914;28;20195;-74
2022/04/18 04:27:32;;;;;;;1.63;0.75;;;25.70;99.90;;;;;;5072693;28;20204;-76
2022/04/18 04:30:02;;;;;;;2.58;0.80;;;25.70;99.90;;;;;;5069611;28;20209;-72
2022/04/18 04:32:33;;;;;;;1.23;0.75;;;25.70;99.90;;;;;;5059383;28;20198;-75
2022/04/18 04:35:04;;;;;;;0.73;0.60;;;25.70;99.90;;;;;;5065701;28;20563;-72
2022/04/18 04:37:34;;;;;;;0.60;0.60;;;25.60;99.90;;;;;;5066753;28;20190;-73
2022/04/18 04:40:08;;;;;;;0.65;0.65;;;25.50;99.90;;;;;;5067090;28;20213;-72
2022/04/18 04:42:38;;;;;;;0.95;0.70;;;25.60;99.90;;;;;;5067567;28;20205;-73
2022/04/18 04:45:10;;;;;;;1.73;0.80;;;25.50;99.90;;;;;;5067309;28;20248;-73
2022/04/18 04:47:40;;;;;;;2.83;0.80;;;25.60;99.90;;;;;;5070295;28;20193;-72
2022/04/18 04:50:12;;;;;;;2.45;0.80;;;25.70;99.90;;;;;;5070017;28;20217;-72
2022/04/18 04:52:42;;;;;;;1.27;0.80;;;25.70;99.90;;;;;;5063135;28;20204;-72
2022/04/18 04:55:15;;;;;;;1.50;0.88;;;25.70;99.90;;;;;;5066792;28;20202;-72
2022/04/18 04:57:46;;;;;;;2.28;0.88;;;25.80;99.90;;;;;;5066149;28;20185;-72
2022/04/18 05:00:17;;;;;;;2.03;0.90;;;25.80;99.90;;;;;;5071125;28;20197;-73
2022/04/18 05:02:48;;;;;;;3.03;0.90;;;25.80;99.90;;;;;;5071585;28;20189;-73
2022/04/18 05:05:18;;;;;;;2.00;0.90;;;25.80;99.90;;;;;;5063841;28;20205;-73
2022/04/18 05:07:49;;;;;;;2.75;0.90;;;25.80;99.90;;;;;;5068809;28;20194;-72
2022/04/18 05:10:22;;;;;;;3.25;1.02;;;25.80;99.90;;;;;;5070348;28;20699;-74
2022/04/18 05:12:53;;;;;;;2.90;1.20;;;25.80;99.90;;;;;;5074664;28;20215;-72
2022/04/18 05:15:24;;;;;;;4.28;1.08;;;25.70;99.90;;;;;;5069071;28;20197;-73
2022/04/18 05:17:55;;;;;;;3.50;0.90;;;25.60;99.90;;;;;;5069315;28;20196;-75
2022/04/18 05:20:25;;;;;;;4.38;0.80;;;25.40;99.90;;;;;;5071026;28;20660;-75
2022/04/18 05:22:56;;;;;;;2.65;1.00;;;25.40;99.90;;;;;;5067848;28;20255;-72
2022/04/18 05:25:30;;;;;;;1.90;1.08;;;25.40;99.90;;;;;;5072590;28;20310;-73
2022/04/18 05:28:00;;;;;;;7.90;1.20;;;25.40;99.90;;;;;;5071278;28;20637;-73
2022/04/18 05:30:31;;;;;;;3.78;1.20;;;25.30;99.90;;;;;;5062237;28;20220;-73
2022/04/18 05:33:02;;;;;;;2.05;0.90;;;25.20;99.90;;;;;;5066341;28;20196;-72
2022/04/18 05:35:32;;;;;;;5.05;1.25;;;25.20;99.90;;;;;;5069119;28;20197;-72
2022/04/18 05:38:03;;;;;;;5.07;0.95;;;25.20;99.90;;;;;;5072659;28;20201;-77
2022/04/18 05:40:36;;;;;;;2.95;1.00;;;25.20;99.90;;;;;;5069197;28;20560;-75
2022/04/18 05:43:08;;;;;;;3.17;0.82;;;25.10;99.90;;;;;;5075296;28;20675;-72
2022/04/18 05:45:40;;;;;;;4.40;0.98;;;25.00;99.90;;;;;;5069328;28;20228;-76
2022/04/18 05:48:11;;;;;;;3.10;0.90;;;24.90;99.90;;;;;;5070013;28;20189;-73
2022/04/18 05:50:45;;;;;;;2.97;1.02;;;24.80;99.90;;;;;;5067871;28;20217;-75
2022/04/18 05:53:16;;;;;;;1.85;0.65;;;24.80;99.90;;;;;;5071833;28;20223;-73
2022/04/18 05:55:48;;;;;;;3.42;0.80;;;24.70;99.90;;;;;;5071544;28;20200;-73
2022/04/18 05:58:19;;;;;;;1.65;0.95;;;24.60;99.90;;;;;;5072132;28;20201;-75
2022/04/18 06:00:49;;;;;;;1.65;1.00;;;24.60;99.90;;;;;;5069584;28;20201;-74
2022/04/18 06:03:20;;;;;;;4.15;1.00;;;24.50;99.90;;;;;;5071180;28;20228;-74
2022/04/18 06:05:51;;;;;;;5.15;0.98;;;24.50;99.90;;;;;;5071602;28;20208;-76
2022/04/18 06:08:21;;;;;;;2.53;1.08;;;24.40;99.90;;;;;;5070180;28;20597;-73
2022/04/18 06:10:54;;;;;;;3.50;1.05;;;24.30;99.90;;;;;;5069434;28;20212;-73
2022/04/18 06:13:24;;;;;;;3.78;1.00;;;24.30;99.90;;;;;;5068433;28;20244;-73
2022/04/18 06:15:55;;;;;;;2.08;1.00;;;24.20;99.90;;;;;;5073115;28;20640;-72
2022/04/18 06:18:26;;;;;;;2.83;1.20;;;24.10;99.90;;;;;;5072797;28;20185;-75
2022/04/18 06:20:56;;;;;;;1.35;0.90;;;24.00;99.90;;;;;;5072962;28;20274;-73
2022/04/18 06:23:27;;;;;;;6.43;1.25;;;24.00;99.90;;;;;;5072977;28;20702;-81
2022/04/18 06:25:59;;;;;;;3.33;1.20;;;23.90;99.90;;;;;;5072151;28;20189;-79
2022/04/18 06:28:30;;;;;;;4.50;1.23;;;23.90;99.90;;;;;;5069052;28;20636;-76
2022/04/18 06:31:01;;;;;;;3.33;0.88;;;23.80;99.90;;;;;;5072346;28;20196;-79
2022/04/18 06:33:34;;;;;;;2.08;0.90;;;23.80;99.90;;;;;;5071849;28;20189;-79
2022/04/18 06:36:04;;;;;;;2.28;1.13;;;23.80;99.90;;;;;;5071850;28;20181;-80
2022/04/18 06:38:35;;;;;;;2.88;1.30;;;23.70;99.90;;;;;;5072183;28;20185;-78
2022/04/18 06:41:08;;;;;;;2.72;0.98;;;23.70;99.90;;;;;;5071760;28;20671;-79
2022/04/18 06:43:39;;;;;;;3.38;1.02;;;23.60;99.90;;;;;;5070084;28;20199;-79
2022/04/18 06:46:09;;;;;;;2.40;1.08;;;23.60;99.90;;;;;;5072559;28;20204;-82
2022/04/18 06:48:40;;;;;;;3.55;1.10;;;23.60;99.90;;;;;;5069735;28;20254;-85
2022/04/18 06:51:10;;;;;;;2.80;1.13;;;23.60;99.90;;;;;;5068578;28;20189;-82
2022/04/18 06:53:41;;;;;;;2.33;1.10;;;23.50;99.90;;;;;;5069812;28;20250;-81
2022/04/18 06:59:00;;;;;;;1.92;1.05;;;23.40;99.90;;;;;;5073672;28;20204;-82
2022/04/18 07:01:30;;;;;;;1.90;1.08;;;23.40;99.90;;;;;;5073605;28;20205;-78
2022/04/18 07:04:01;;;;;;;3.60;1.10;;;23.40;99.90;;;;;;5067092;28;20286;-72
2022/04/18 07:06:32;;;;;;;4.05;1.00;;;23.30;99.90;;;;;;5069715;28;20585;-77
2022/04/18 07:09:05;;;;;;;3.80;1.00;;;23.20;99.90;;;;;;5071320;28;20193;-81
2022/04/18 07:11:37;;;;;;;3.83;1.20;;;23.20;99.90;;;;;;5065516;28;20198;-82
2022/04/18 07:14:08;;;;;;;3.53;0.85;;;23.10;99.90;;;;;;5064521;28;20189;-79
2022/04/18 07:16:39;;;;;;;2.45;1.15;;;23.00;99.90;;;;;;5067701;28;20192;-81
2022/04/18 07:19:10;;;;;;;2.33;1.08;;;23.00;99.90;;;;;;5072355;28;20254;-73
2022/04/18 07:21:41;;;;;;;4.88;1.35;;;22.90;99.90;;;;;;5063934;28;20264;-73
2022/04/18 07:24:11;;;;;;;2.20;1.23;;;22.80;99.90;;;;;;5065327;28;20197;-73
2022/04/18 07:26:44;;;;;;;6.18;1.17;;;22.80;99.90;;;;;;5079813;28;20196;-73
2022/04/18 07:29:15;;;;;;;3.75;1.10;;;22.70;99.90;;;;;;5069431;28;20295;-73
2022/04/18 07:31:46;;;;;;;4.72;1.30;;;22.80;99.90;;;;;;5070570;28;20649;-72
2022/04/18 07:34:17;;;;;;;1.98;1.20;;;22.60;99.90;;;;;;5070310;28;20263;-72
2022/04/18 07:36:47;;;;;;;6.22;1.50;;;22.50;99.90;;;;;;5062553;28;20193;-72
2022/04/18 07:39:18;;;;;;;5.28;1.65;;;22.50;99.90;;;;;;5076191;28;20564;-72
2022/04/18 07:41:51;;;;;;;6.45;1.40;;;22.40;99.90;;;;;;5076192;28;20243;-72
2022/04/18 07:44:22;;;;;;;3.80;1.13;;;22.40;99.90;;;;;;5068216;28;20212;-72
2022/04/18 07:46:55;;;;;;;5.80;1.30;;;22.40;99.90;;;;;;5072755;28;20192;-72
2022/04/18 07:49:25;;;;;;;6.10;1.30;;;22.40;99.90;;;;;;5075482;28;20212;-72
2022/04/18 07:51:56;;;;;;;2.28;1.30;;;22.40;99.90;;;;;;5073740;28;20207;-74
2022/04/18 07:54:27;;;;;;;3.75;1.33;;;22.30;99.90;;;;;;5078876;28;20193;-72
2022/04/18 07:56:59;;;;;;;5.50;1.40;;;22.30;99.90;;;;;;5077780;28;20208;-79
2022/04/18 07:59:30;;;;;;;6.40;1.45;;;22.30;99.90;;;;;;5074322;28;20718;-75
2022/04/18 08:02:01;;;;;;;3.60;1.30;;;22.20;99.90;;;;;;5068377;28;20208;-73
2022/04/18 08:04:32;;;;;;;4.35;1.67;;;22.20;99.90;;;;;;5071557;28;20780;-77
2022/04/18 08:07:03;;;;;;;5.85;1.40;;;22.10;99.90;;;;;;5074997;28;20201;-73
2022/04/18 08:09:34;;;;;;;3.75;1.60;;;22.10;99.90;;;;;;5075614;28;20221;-73
2022/04/18 08:12:07;;;;;;;5.90;1.92;;;22.10;99.90;;;;;;5065477;28;20197;-73
2022/04/18 08:14:37;;;;;;;4.53;1.70;;;22.00;99.90;;;;;;5067988;28;20252;-74
2022/04/18 08:17:08;;;;;;;4.85;1.60;;;22.00;99.90;;;;;;5072569;28;20722;-76
2022/04/18 08:19:39;;;;;;;6.97;1.58;;;21.80;99.90;;;;;;5073581;28;20228;-75
2022/04/18 08:22:10;;;;;;;2.30;1.50;;;21.80;99.90;;;;;;5074290;28;20212;-73
2022/04/18 08:24:40;;;;;;;4.38;1.60;;;21.70;99.90;;;;;;5077307;28;20193;-76
2022/04/18 08:27:13;;;;;;;4.20;1.80;;;21.70;99.90;;;;;;5068825;28;20660;-73
2022/04/18 08:29:45;;;;;;;3.75;1.45;;;21.70;99.90;;;;;;5073188;28;20219;-73
2022/04/18 08:32:16;;;;;;;6.43;1.60;;;21.60;99.90;;;;;;5072803;28;20275;-72
2022/04/18 08:34:46;;;;;;;2.45;1.50;;;21.60;99.90;;;;;;5067095;28;20193;-74
2022/04/18 08:37:17;;;;;;;3.78;1.90;;;21.50;99.90;;;;;;5073114;28;20206;-73
2022/04/18 08:39:48;;;;;;;5.10;2.10;;;21.40;99.90;;;;;;5068881;28;20570;-73
2022/04/18 08:42:23;;;;;;;5.72;1.92;;;21.40;99.90;;;;;;5069285;28;20283;-74
2022/04/18 08:44:55;;;;;;;4.97;1.83;;;21.40;99.90;;;;;;5069316;28;20212;-72
2022/04/18 08:53:00;;;;;;;5.13;1.30;;;21.40;99.90;;;;;;5070072;28;20220;-73
2022/04/18 08:55:31;;;;;;;6.25;1.42;;;21.40;99.90;;;;;;5063710;28;20197;-73
2022/04/18 08:58:04;;;;;;;4.10;1.70;;;21.40;99.90;;;;;;5068035;28;20201;-72
2022/04/18 09:00:35;;;;;;;4.60;2.05;;;21.40;99.90;;;;;;5067014;28;20197;-72
2022/04/18 09:03:05;;;;;;;4.22;1.90;;;21.30;99.90;;;;;;5063248;28;20256;-74
2022/04/18 09:05:39;;;;;;;3.58;1.60;;;21.20;99.90;;;;;;5074231;28;20190;-72
2022/04/18 09:08:11;;;;;;;3.78;1.73;;;21.20;99.90;;;;;;5075002;28;20197;-74
2022/04/18 09:10:43;;;;;;;3.25;1.55;;;21.10;99.90;;;;;;5066775;28;20289;-72
2022/04/18 09:13:16;;;;;;;3.92;1.83;;;21.10;99.90;;;;;;5077305;28;20196;-73
2022/04/18 09:15:49;;;;;;;4.00;1.88;;;21.10;99.90;;;;;;5074094;28;20247;-73
2022/04/18 09:18:20;;;;;;;3.35;2.10;;;21.00;99.90;;;;;;5074247;28;20189;-73
2022/04/18 09:20:51;;;;;;;5.32;2.28;;;21.00;99.90;;;;;;5074306;28;20564;-73
2022/04/18 09:23:30;;;;;;;4.20;2.35;;;20.90;99.90;;;;;;5072962;28;20196;-72
2022/04/18 09:26:02;;;;;;;3.83;1.88;;;20.90;99.90;;;;;;5074484;28;20189;-73
2022/04/18 09:28:36;;;;;;;2.92;1.55;;;20.90;99.90;;;;;;5076849;28;20207;-72
2022/04/18 09:31:09;;;;;;;2.58;1.50;;;20.90;99.90;;;;;;5066633;28;20216;-73
2022/04/18 09:33:48;;;;;;;3.90;1.60;;;20.90;99.90;;;;;;5073560;28;20243;-72
2022/04/18 09:36:20;;;;;;;1.70;1.35;;;20.90;99.90;;;;;;5073392;28;20200;-75
2022/04/18 09:38:55;;;;;;;4.45;1.77;;;20.90;99.90;;;;;;5073880;28;20201;-80
2022/04/18 09:41:27;;;;;;;3.55;1.90;;;20.90;99.90;;;;;;5069184;28;20199;-74
2022/04/18 09:44:01;;;;;;;2.95;1.77;;;20.90;99.90;;;;;;5066408;28;20216;-73
2022/04/18 09:46:32;;;;;;;4.10;1.70;;;20.90;99.90;;;;;;5072792;28;20295;-72
2022/04/18 09:49:05;;;;;;;6.80;1.52;;;20.90;99.90;;;;;;5066798;28;20196;-72
2022/04/18 09:51:38;;;;;;;3.28;1.80;;;20.90;99.90;;;;;;5073754;28;20236;-72
2022/04/18 09:54:09;;;;;;;3.20;1.90;;;20.90;99.90;;;;;;5074041;28;20200;-74
2022/04/18 09:56:49;;;;;;;4.40;1.85;;;20.80;99.90;;;;;;5070040;28;20196;-73
2022/04/18 09:59:22;;;;;;;2.67;1.80;;;20.90;99.90;;;;;;5071872;28;20275;-73
2022/04/18 10:01:53;;;;;;;3.33;1.92;;;20.80;99.90;;;;;;5073353;28;20204;-76
2022/04/18 10:04:26;;;;;;;3.80;1.73;;;20.80;99.90;;;;;;5065289;28;20709;-73
2022/04/18 10:06:57;;;;;;;2.92;1.60;;;20.70;99.90;;;;;;5065157;28;20284;-72
2022/04/18 10:09:28;;;;;;;2.95;1.60;;;20.70;99.90;;;;;;5071757;28;20244;-79
2022/04/18 10:12:02;;;;;;;5.40;1.80;;;20.70;99.90;;;;;;5062394;28;20612;-78
2022/04/18 10:14:35;;;;;;;2.92;1.65;;;20.60;99.90;;;;;;5063116;28;20201;-73
2022/04/18 10:17:08;;;;;;;3.30;1.58;;;20.60;99.90;;;;;;5059869;28;20201;-75
2022/04/18 10:19:56;;;;;;;4.30;1.42;;;20.60;99.90;;;;;;5073024;28;20185;-72
2022/04/18 10:22:56;;;;;;;3.70;1.42;;;20.60;99.90;;;;;;5061339;28;20709;-74
2022/04/18 10:25:40;;;;;;;3.78;1.50;;;20.60;99.90;;;;;;5068290;28;20185;-76
2022/04/18 10:28:16;;;;;;;2.22;1.30;;;20.60;99.90;;;;;;5073556;28;20204;-75
2022/04/18 10:30:52;;;;;;;1.20;1.10;;;20.60;99.90;;;;;;5075213;28;20218;-74
2022/04/18 10:33:24;;;;;;;2.72;1.48;;;20.60;99.90;;;;;;5067772;28;20192;-73
2022/04/18 10:36:02;;;;;;;2.80;1.20;;;20.60;99.90;;;;;;5066272;28;20204;-72
2022/04/18 10:38:36;;;;;;;2.33;1.40;;;20.60;99.90;;;;;;5066781;28;20660;-72
2022/04/18 10:41:27;;;;;;;3.38;1.90;;;20.60;99.90;;;;;;5059214;28;20193;-73
2022/04/18 10:44:03;;;;;;;3.97;1.70;;;20.60;99.90;;;;;;5072380;28;20221;-73
2022/04/18 10:46:36;;;;;;;2.38;1.60;;;20.50;99.90;;;;;;5072743;28;20669;-73
2022/04/18 10:49:07;;;;;;;3.40;1.50;;;20.50;99.90;;;;;;5068454;28;20189;-73
2022/04/18 10:51:39;;;;;;;6.85;1.70;;;20.50;99.90;;;;;;5064879;28;20305;-72
2022/04/18 10:54:13;;;;;;;2.88;1.42;;;20.40;99.90;;;;;;5072915;28;20193;-72
2022/04/18 10:56:54;;;;;;;3.42;1.38;;;20.40;99.90;;;;;;5073001;28;20203;-73
2022/04/18 10:59:26;;;;;;;1.77;1.40;;;20.40;99.90;;;;;;5072779;28;20257;-72
2022/04/18 11:02:01;;;;;;;3.10;1.63;;;20.40;99.90;;;;;;5065071;28;20204;-73
2022/04/18 11:04:33;;;;;;;3.55;1.27;;;20.40;99.90;;;;;;5072270;28;20224;-73
2022/04/18 11:07:06;;;;;;;2.97;1.60;;;20.30;99.90;;;;;;5065914;28;20243;-72
2022/04/18 11:09:40;;;;;;;3.63;1.20;;;20.30;99.90;;;;;;5063282;28;20201;-72
2022/04/18 11:12:14;;;;;;;4.22;1.35;;;20.30;99.90;;;;;;5071944;28;20217;-78
2022/04/18 11:14:53;;;;;;;3.45;1.50;;;20.20;99.90;;;;;;5062719;28;20193;-76
2022/04/18 11:17:34;;;;;;;4.15;1.75;;;20.10;99.90;;;;;;5068411;28;20333;-74
2022/04/18 11:20:28;;;;;;;3.13;1.60;;;20.10;99.90;;;;;;5070625;28;20204;-72
2022/04/18 11:23:23;;;;;;;2.22;1.45;;;20.10;99.90;;;;;;5066996;28;20279;-73
2022/04/18 11:25:58;;;;;;;2.50;1.50;;;20.10;99.90;;;;;;5072602;28;20201;-72
2022/04/18 11:28:35;;;;;;;4.32;1.33;;;20.00;99.90;;;;;;5065268;28;20184;-73
2022/04/18 11:31:12;;;;;;;3.08;1.30;;;20.00;99.90;;;;;;5068020;28;20217;-75
2022/04/18 11:33:46;;;;;;;4.40;1.60;;;19.90;99.90;;;;;;5066554;28;20196;-74
2022/04/18 11:36:17;;;;;;;3.58;1.58;;;19.90;99.90;;;;;;5072131;28;20292;-73
2022/04/18 11:38:48;;;;;;;2.80;1.33;;;19.80;99.90;;;;;;5077031;28;20232;-73
2022/04/18 11:41:19;;;;;;;4.00;1.60;;;19.80;99.90;;;;;;5071722;28;20235;-74
2022/04/18 11:43:58;;;;;;;3.10;1.40;;;19.70;99.90;;;;;;5070926;28;20229;-73
2022/04/18 11:46:32;;;;;;;4.25;1.60;;;19.70;99.90;;;;;;5071894;28;20192;-73
2022/04/18 11:49:05;;;;;;;3.10;1.48;;;19.70;99.90;;;;;;5068644;28;20197;-73
2022/04/18 11:51:42;;;;;;;3.67;1.60;;;19.70;99.90;;;;;;5065157;28;20618;-72
2022/04/18 11:54:13;;;;;;;3.22;1.40;;;19.70;99.90;;;;;;5071911;28;20207;-72
2022/04/18 11:56:43;;;;;;;5.32;1.50;;;19.60;99.90;;;;;;5070889;28;20196;-73
2022/04/18 11:59:14;;;;;;;5.78;1.70;;;19.70;99.90;;;;;;5068685;28;20705;-72
2022/04/18 12:07:24;;;;;;;3.70;1.50;;;19.60;99.90;;;;;;5073043;28;20211;-74
2022/04/18 12:09:54;;;;;;;3.90;1.58;;;19.60;99.90;;;;;;5073028;28;20192;-72
2022/04/18 12:12:35;;;;;;;2.55;1.33;;;19.60;99.90;;;;;;5069514;28;20221;-71
2022/04/18 12:15:06;;;;;;;2.05;1.30;;;19.60;99.90;;;;;;5073934;28;20201;-73
2022/04/18 12:17:50;;;;;;;3.63;1.25;;;19.60;99.90;;;;;;5070364;28;20204;-72
2022/04/18 12:20:38;;;;;;;3.00;1.35;;;19.60;99.90;;;;;;5071411;28;20208;-72
2022/04/18 12:23:11;;;;;;;1.83;1.10;;;19.50;99.90;;;;;;5071861;28;20205;-72
2022/04/18 12:25:47;;;;;;;3.33;1.45;;;19.60;99.90;;;;;;5073822;28;20203;-73
2022/04/18 12:28:21;;;;;;;5.25;1.42;;;19.60;99.90;;;;;;5065903;28;20189;-72
2022/04/18 12:30:52;;;;;;;2.92;1.13;;;19.60;99.90;;;;;;5073499;28;20337;-72
2022/04/18 12:33:24;;;;;;;2.13;1.08;;;19.60;99.90;;;;;;5066731;28;20564;-73
2022/04/18 12:35:59;;;;;;;2.63;1.20;;;19.60;99.90;;;;;;5063879;28;20194;-75
2022/04/18 12:38:35;;;;;;;2.20;1.08;;;19.50;99.90;;;;;;5066645;28;20678;-73
2022/04/18 12:41:08;;;;;;;2.47;1.10;;;19.40;99.90;;;;;;5073988;28;20299;-73
2022/04/18 12:43:39;;;;;;;1.70;1.10;;;19.40;99.90;;;;;;5072900;28;20189;-73
2022/04/18 12:46:15;;;;;;;2.83;1.00;;;19.40;99.90;;;;;;5069580;28;20199;-76
2022/04/18 12:48:52;;;;;;;3.47;1.20;;;19.40;99.90;;;;;;5074321;28;20644;-72
2022/04/18 12:51:39;;;;;;;3.85;1.05;;;19.40;99.90;;;;;;5072350;28;20299;-71
2022/04/18 12:54:22;;;;;;;1.45;1.10;;;19.30;99.90;;;;;;5072255;28;20239;-71
2022/04/18 12:56:56;;;;;;;2.42;1.10;;;19.30;99.90;;;;;;5074139;28;20226;-72
2022/04/18 12:59:27;;;;;;;3.45;1.08;;;19.30;99.90;;;;;;5070916;28;20192;-71
2022/04/18 13:02:08;;;;;;;3.00;1.25;;;19.30;99.90;;;;;;5073613;28;20193;-72
2022/04/18 13:04:39;;;;;;;2.30;1.05;;;19.30;99.90;;;;;;5069717;28;20229;-72
2022/04/18 13:07:12;;;;;;;3.13;1.00;;;19.20;99.90;;;;;;5072538;28;20193;-72
2022/04/18 13:09:43;;;;;;;2.50;1.25;;;19.20;99.90;;;;;;5065152;28;20201;-72
2022/04/18 13:12:14;;;;;;;5.75;1.25;;;19.20;99.90;;;;;;5064046;28;20224;-73
2022/04/18 13:15:03;;;;;;;4.50;1.02;;;19.20;99.90;;;;;;5072219;28;20203;-72
2022/04/18 13:17:35;;;;;;;1.40;1.08;;;19.10;99.90;;;;;;5071198;28;20211;-73
2022/04/18 13:20:07;;;;;;;3.42;1.13;;;19.20;99.90;;;;;;5068333;28;20189;-74
2022/04/18 13:22:40;;;;;;;2.38;1.15;;;19.10;99.90;;;;;;5068388;28;20197;-72
2022/04/18 13:25:18;;;;;;;3.88;1.15;;;19.10;99.90;;;;;;5071900;28;20808;-71
2022/04/18 13:27:50;;;;;;;3.85;0.93;;;19.10;99.90;;;;;;5072452;28;20677;-74
2022/04/18 13:30:21;;;;;;;1.30;0.90;;;19.10;99.90;;;;;;5070487;28;20275;-73
2022/04/18 13:32:52;;;;;;;1.33;0.82;;;19.10;99.90;;;;;;5067792;28;20224;-73
2022/04/18 13:35:23;;;;;;;3.55;1.00;;;19.10;99.90;;;;;;5068182;28;20216;-72
2022/04/18 13:37:56;;;;;;;2.38;1.00;;;19.20;99.90;;;;;;5072065;28;20192;-76
2022/04/18 13:40:26;;;;;;;0.80;0.77;;;19.20;99.90;;;;;;5072101;28;20250;-71